Friday, February 12, 2016
16:14 UTC
  |  Log In   |  Register Free
Airport Search:

Enid Woodring Regional Airport
(KWDG)

FAA data valid effective Feb 4 2016 - Mar 31 2016 (unless otherwise noted).

 
 
 
 
 
 
 
 
 
 
 
 
 
 
Current Aviation Weather for KWDG

Weather Summary


The most recent METAR observation for WDG was updated at: 12:50 UTC
METAR for KWDG is not available. Closest METAR is for KBKN 30.6 nm SW
KBKN  (30.6 nm SW)   (most recent observation was updated at 12:15 UTC)
121555Z AUTO 01012G18KT 10SM -UP CLR 05/M01 A3040 RMK AO2

TAF for KWDG is not available.
KEND  (6.6 nm NE)   (most recent observation was updatred at 12:11 UTC)
121100Z 1211/1317 VRB06KT 9999 FEW200 QNH3015INS BECMG 1217/1218 02010G15KT 9999 SKC QNH3020INS BECMG 1305/1306 06009KT 9999 SKC QNH3028INS TX13/1221Z TNM01/1211Z


GlobalAir.com is loading additional information.
 Current Weather at WDG
32.0 F° (0.0 C°)

North winds at 10.4 mph
Pressure:
30.30 in
Humidity:
93%
Wind:
North at 10.4 mph
Dew Point:
30.2 F° (-1.0 C°)
Visibility:
7.00 mi
WDG NOAA Radar




Find All Airport Services Find A Hotel Find A Rental Car Find A Golf Course Find A Restaurant $100 Hamburger



Airport Weather Forecast for KWDG

Translated METAR for KWDG (1350 UTC)
METAR:
KWDG 121350Z 35009KT 7SM SCT150 00/M01 A3030
Conditions at:
KWDG (Enid Woodring Rgnl, OK) observed 1350 UTC 12 February 2016
Temperature:
0°C (32°F)
Dewpoint:
-1°C (30.2°F) [RH = 93]
Pressure:
30.3 inches Hg (1026.1 mb)
Winds:
from the N (350 degrees) at 10.4 mph (9 knots: 4.6 m/s)
Visibility:
7 mile(s)
Ceiling:
at least 12,000 feet AGL
Clouds:
Scattered Clouds at 15,000 feet AGL
Remarks:

Translated TAF for KEND (Vance Afb, OK) (1100 UTC)
TAF text:
KEND 121100Z 1211/1317 VRB06KT 9999 FEW200 QNH3015INS BECMG 1217/1218 02010G15KT 9999 SKC QNH3020INS BECMG 1305/1306 06009KT 9999 SKC QNH3028INS TX13/1221Z TNM01/1211Z
Forecast period:
Friday Feb 12 2016 11:00 UTC - Saturday Feb 13 2016 17:00 UTC
Forecast type:
FROM: standard forecast or significant change
Winds:
from the ENE (060 degrees) at 10.4 mph (9 knots: 4.6 m/s)
Visibility:
Ceiling:
at least 12,000 feet AGL
at least 12,000 feet AGL
at least 12,000 feet AGL
Clouds:
Few Clouds at 20,000 feet AGL
Clear Skies
Clear Skies
Weather:
no significant weather observed at this time
FBO's on the Field
FBO Company Facility Photos Services Transportation Aviation Fuel Prices: Prices include tax
Catering Weather Repair Courtesy Rental Type 100LL JetA JetA+ MOGAS 8087
 
Enid Woodring Regional Airport

This FBO has not yet been rated
FS:Phillips 66
Last Updated: Feb-04
Login to update fuel prices
SS:
Contact Enid Woodring Regional AirportMore FBO Information
 
Add another FBO Facility Photos Catering Weather Repair Courtesy Rental Type 100LL JetA JetA+ MOGAS 8087
Services Transportation Aviation Fuel Prices: Prices include tax


model-print
model-print
model-print
model-print